Terminal Aerodrome Forecast
Issued by NWS

Current Version | Previous Version | Text Only | Print | Product List | Glossary On
Versions: 1 2 3 4 5 6 7 8 9 10 11 12 13 14 15 16 17 18
000
FTUS42 KMLB 312333
TAFTIX
TAF
KTIX 312333Z 0100/0124 12009KT P6SM VCTS SCT020CB SCT050 BKN150
     FM010200 16005KT P6SM SCT020 BKN250
     FM010400 VRB02KT P6SM BKN250
     FM011400 19005KT P6SM SCT015 SCT150 BKN250
     FM011800 16010KT P6SM VCSH SCT025 SCT050
      AMD NOT SKED 0101/0111=

USA.gov is the U.S. government's official web portal to all federal, state and local government web resources and services.